Weather Data

Pearl Creek Farm: 8878 N Farm Road 75, Walnut Grove MO 65770

<== Previous Day (Thursday 10 Sep 2015) | Next Day (Saturday 12 Sep 2015) ==>

Summary Precipitation Data For Friday 11 September 2015

ElementValueUnits
Precipitation0.28"
NotesThunderstorms through about 0100 hours. Lots of wind and lightning.
SourcePearl Creek Farm

Summary Temperature Data For Friday 11 September 2015

ElementValueUnits
High Temperature74 oF
Low Temperature59 oF
Average Temperature67 oF
High Humidity94 %
Low Humidity61 %
Average Humidity82 %
SourcePearl Creek Farm

Detail Temperature Data For Friday 11 September 2015

Date / TimeTemp (F)RH (%)Dew Pt (F)Report Date / TimeSource
2015-09-11 00:00:00 69 91 66.3 2015-11-18 13:17:03 Pearl Creek Farm
2015-09-11 00:30:00 69 91 66.3 2015-11-18 13:17:03 Pearl Creek Farm
2015-09-11 01:00:00 69 87 65.0 2015-11-18 13:17:03 Pearl Creek Farm
2015-09-11 01:30:00 67 92 64.4 2015-11-18 13:17:03 Pearl Creek Farm
2015-09-11 02:00:00 67 92 64.6 2015-11-18 13:17:03 Pearl Creek Farm
2015-09-11 02:30:00 67 92 64.6 2015-11-18 13:17:03 Pearl Creek Farm
2015-09-11 03:00:00 66 93 63.8 2015-11-18 13:17:03 Pearl Creek Farm
2015-09-11 03:30:00 66 93 63.8 2015-11-18 13:17:03 Pearl Creek Farm
2015-09-11 04:00:00 66 93 63.8 2015-11-18 13:17:03 Pearl Creek Farm
2015-09-11 04:30:00 66 93 63.8 2015-11-18 13:17:03 Pearl Creek Farm
2015-09-11 05:00:00 66 94 64.1 2015-11-18 13:17:03 Pearl Creek Farm
2015-09-11 05:30:00 66 93 63.9 2015-11-18 13:17:03 Pearl Creek Farm
2015-09-11 06:00:00 66 94 64.1 2015-11-18 13:17:03 Pearl Creek Farm
2015-09-11 06:30:00 67 93 64.8 2015-11-18 13:17:03 Pearl Creek Farm
2015-09-11 07:00:00 66 93 63.8 2015-11-18 13:17:03 Pearl Creek Farm
2015-09-11 07:30:00 65 93 62.8 2015-11-18 13:17:03 Pearl Creek Farm
2015-09-11 08:00:00 66 94 64.1 2015-11-18 13:17:03 Pearl Creek Farm
2015-09-11 08:30:00 67 93 64.8 2015-11-18 13:17:03 Pearl Creek Farm
2015-09-11 09:00:00 66 92 63.6 2015-11-18 13:17:03 Pearl Creek Farm
2015-09-11 09:30:00 66 93 63.8 2015-11-18 13:17:03 Pearl Creek Farm
2015-09-11 10:00:00 66 91 63.3 2015-11-18 13:17:03 Pearl Creek Farm
2015-09-11 10:30:00 67 92 64.4 2015-11-18 13:17:03 Pearl Creek Farm
2015-09-11 11:00:00 67 91 64.1 2015-11-18 13:17:03 Pearl Creek Farm
2015-09-11 11:30:00 67 89 63.7 2015-11-18 13:17:03 Pearl Creek Farm
2015-09-11 12:00:00 70 85 65.3 2015-11-18 13:17:03 Pearl Creek Farm
2015-09-11 12:30:00 70 82 64.1 2015-11-18 13:17:03 Pearl Creek Farm
2015-09-11 13:00:00 71 80 64.3 2015-11-18 13:17:03 Pearl Creek Farm
2015-09-11 13:30:00 73 71 63.0 2015-11-18 13:17:03 Pearl Creek Farm
2015-09-11 14:00:00 73 67 61.4 2015-11-18 13:17:03 Pearl Creek Farm
2015-09-11 14:30:00 73 65 60.5 2015-11-18 13:17:03 Pearl Creek Farm
2015-09-11 15:00:00 73 65 60.5 2015-11-18 13:17:03 Pearl Creek Farm
2015-09-11 15:30:00 74 63 60.4 2015-11-18 13:17:03 Pearl Creek Farm
2015-09-11 16:00:00 73 61 58.8 2015-11-18 13:17:03 Pearl Creek Farm
2015-09-11 16:30:00 73 62 59.0 2015-11-18 13:17:03 Pearl Creek Farm
2015-09-11 17:00:00 72 63 58.7 2015-11-18 13:17:03 Pearl Creek Farm
2015-09-11 17:30:00 71 62 57.3 2015-11-18 13:17:03 Pearl Creek Farm
2015-09-11 18:00:00 70 61 55.9 2015-11-18 13:17:03 Pearl Creek Farm
2015-09-11 18:30:00 69 61 55.0 2015-11-18 13:17:03 Pearl Creek Farm
2015-09-11 19:00:00 68 62 54.5 2015-11-18 13:17:03 Pearl Creek Farm
2015-09-11 19:30:00 67 72 57.5 2015-11-18 13:17:03 Pearl Creek Farm
2015-09-11 20:00:00 64 77 56.7 2015-11-18 13:17:03 Pearl Creek Farm
2015-09-11 20:30:00 63 79 56.4 2015-11-18 13:17:03 Pearl Creek Farm
2015-09-11 21:00:00 62 82 56.3 2015-11-18 13:17:03 Pearl Creek Farm
2015-09-11 21:30:00 61 81 55.1 2015-11-18 13:17:03 Pearl Creek Farm
2015-09-11 22:00:00 61 81 55.0 2015-11-18 13:17:03 Pearl Creek Farm
2015-09-11 22:30:00 60 82 54.5 2015-11-18 13:17:03 Pearl Creek Farm
2015-09-11 23:00:00 59 84 54.0 2015-11-18 13:17:03 Pearl Creek Farm
2015-09-11 23:30:00 59 85 54.3 2015-11-18 13:17:03 Pearl Creek Farm

A total of 48 rows are displayed.